sensor_id;sensor_type;location;lat;lon;timestamp;P1;durP1;ratioP1;P2;durP2;ratioP2
45382;SDS011;42455;51.660;5.824;2023-05-10T00:02:57;20.0;;;18.0;;
45382;SDS011;42455;51.660;5.824;2023-05-10T00:08:03;20.0;;;18.0;;
45382;SDS011;42455;51.660;5.824;2023-05-10T00:13:10;20.0;;;18.0;;
45382;SDS011;42455;51.660;5.824;2023-05-10T00:18:16;20.0;;;18.0;;
45382;SDS011;42455;51.660;5.824;2023-05-10T00:23:22;20.0;;;18.0;;
45382;SDS011;42455;51.660;5.824;2023-05-10T00:28:28;19.5;;;17.5;;
45382;SDS011;42455;51.660;5.824;2023-05-10T00:33:34;20.0;;;18.0;;
45382;SDS011;42455;51.660;5.824;2023-05-10T00:38:41;19.5;;;17.5;;
45382;SDS011;42455;51.660;5.824;2023-05-10T00:43:47;20.0;;;18.0;;
45382;SDS011;42455;51.660;5.824;2023-05-10T00:48:53;19.0;;;17.0;;
45382;SDS011;42455;51.660;5.824;2023-05-10T00:53:59;19.0;;;17.0;;
45382;SDS011;42455;51.660;5.824;2023-05-10T00:59:05;20.0;;;17.0;;
45382;SDS011;42455;51.660;5.824;2023-05-10T01:04:12;19.0;;;17.0;;
45382;SDS011;42455;51.660;5.824;2023-05-10T01:09:18;21.0;;;18.0;;
45382;SDS011;42455;51.660;5.824;2023-05-10T01:14:23;21.0;;;18.0;;
45382;SDS011;42455;51.660;5.824;2023-05-10T01:19:29;20.0;;;18.0;;
45382;SDS011;42455;51.660;5.824;2023-05-10T01:26:25;20.0;;;18.0;;
45382;SDS011;42455;51.660;5.824;2023-05-10T01:32:55;22.0;;;19.0;;
45382;SDS011;42455;51.660;5.824;2023-05-10T01:36:45;23.0;;;20.0;;
45382;SDS011;42455;51.660;5.824;2023-05-10T01:40:57;23.0;;;19.0;;
45382;SDS011;42455;51.660;5.824;2023-05-10T01:45:24;26.0;;;21.0;;
45382;SDS011;42455;51.660;5.824;2023-05-10T01:50:09;25.0;;;21.0;;
45382;SDS011;42455;51.660;5.824;2023-05-10T01:55:13;25.0;;;22.0;;
45382;SDS011;42455;51.660;5.824;2023-05-10T02:00:19;29.5;;;24.0;;
45382;SDS011;42455;51.660;5.824;2023-05-10T02:05:26;28.0;;;24.0;;
45382;SDS011;42455;51.660;5.824;2023-05-10T02:10:32;30.0;;;25.0;;
45382;SDS011;42455;51.660;5.824;2023-05-10T02:15:40;30.0;;;25.0;;
45382;SDS011;42455;51.660;5.824;2023-05-10T02:20:44;31.0;;;26.0;;
45382;SDS011;42455;51.660;5.824;2023-05-10T02:25:51;32.0;;;26.5;;
45382;SDS011;42455;51.660;5.824;2023-05-10T02:30:56;34.0;;;28.0;;
45382;SDS011;42455;51.660;5.824;2023-05-10T02:36:02;37.0;;;28.0;;
45382;SDS011;42455;51.660;5.824;2023-05-10T02:41:09;42.0;;;32.0;;
45382;SDS011;42455;51.660;5.824;2023-05-10T02:46:15;47.5;;;35.0;;
45382;SDS011;42455;51.660;5.824;2023-05-10T02:51:21;49.0;;;36.0;;
45382;SDS011;42455;51.660;5.824;2023-05-10T02:56:35;49.0;;;36.0;;
45382;SDS011;42455;51.660;5.824;2023-05-10T03:01:33;48.0;;;35.0;;
45382;SDS011;42455;51.660;5.824;2023-05-10T03:06:40;52.0;;;37.0;;
45382;SDS011;42455;51.660;5.824;2023-05-10T03:12:02;53.0;;;37.5;;
45382;SDS011;42455;51.660;5.824;2023-05-10T03:16:54;52.0;;;37.0;;
45382;SDS011;42455;51.660;5.824;2023-05-10T03:22:01;54.0;;;38.0;;
45382;SDS011;42455;51.660;5.824;2023-05-10T03:27:04;55.0;;;39.0;;
45382;SDS011;42455;51.660;5.824;2023-05-10T03:32:11;53.0;;;38.0;;
45382;SDS011;42455;51.660;5.824;2023-05-10T03:37:17;53.0;;;38.0;;
45382;SDS011;42455;51.660;5.824;2023-05-10T03:42:23;52.5;;;38.0;;
45382;SDS011;42455;51.660;5.824;2023-05-10T03:47:29;51.5;;;38.0;;
45382;SDS011;42455;51.660;5.824;2023-05-10T03:52:36;50.0;;;37.0;;
45382;SDS011;42455;51.660;5.824;2023-05-10T03:57:42;51.0;;;38.0;;
45382;SDS011;42455;51.660;5.824;2023-05-10T04:02:48;50.0;;;38.0;;
45382;SDS011;42455;51.660;5.824;2023-05-10T04:07:54;52.0;;;38.0;;
45382;SDS011;42455;51.660;5.824;2023-05-10T04:13:00;54.0;;;40.0;;
45382;SDS011;42455;51.660;5.824;2023-05-10T04:18:07;53.0;;;40.0;;
45382;SDS011;42455;51.660;5.824;2023-05-10T04:23:13;53.0;;;40.0;;
45382;SDS011;42455;51.660;5.824;2023-05-10T04:28:19;55.0;;;41.0;;
45382;SDS011;42455;51.660;5.824;2023-05-10T04:33:25;55.5;;;41.0;;
45382;SDS011;42455;51.660;5.824;2023-05-10T04:38:31;52.0;;;41.0;;
45382;SDS011;42455;51.660;5.824;2023-05-10T04:43:38;53.0;;;40.0;;
45382;SDS011;42455;51.660;5.824;2023-05-10T04:48:44;52.0;;;40.0;;
45382;SDS011;42455;51.660;5.824;2023-05-10T04:53:50;51.0;;;40.0;;
45382;SDS011;42455;51.660;5.824;2023-05-10T04:58:56;50.0;;;39.0;;
45382;SDS011;42455;51.660;5.824;2023-05-10T05:04:02;49.0;;;38.0;;
45382;SDS011;42455;51.660;5.824;2023-05-10T05:09:09;48.0;;;36.0;;
45382;SDS011;42455;51.660;5.824;2023-05-10T05:14:15;45.0;;;35.0;;
45382;SDS011;42455;51.660;5.824;2023-05-10T05:19:21;45.0;;;34.0;;
45382;SDS011;42455;51.660;5.824;2023-05-10T05:24:27;43.0;;;32.0;;
45382;SDS011;42455;51.660;5.824;2023-05-10T05:29:34;43.0;;;32.0;;
45382;SDS011;42455;51.660;5.824;2023-05-10T05:34:40;45.0;;;32.0;;
45382;SDS011;42455;51.660;5.824;2023-05-10T05:39:46;41.0;;;31.0;;
45382;SDS011;42455;51.660;5.824;2023-05-10T05:44:52;41.0;;;30.0;;
45382;SDS011;42455;51.660;5.824;2023-05-10T05:49:58;42.0;;;31.0;;
45382;SDS011;42455;51.660;5.824;2023-05-10T05:55:05;40.5;;;29.0;;
45382;SDS011;42455;51.660;5.824;2023-05-10T06:00:11;38.0;;;29.0;;
45382;SDS011;42455;51.660;5.824;2023-05-10T06:05:17;38.0;;;29.0;;
45382;SDS011;42455;51.660;5.824;2023-05-10T06:10:23;39.0;;;29.0;;
45382;SDS011;42455;51.660;5.824;2023-05-10T06:15:30;40.5;;;30.0;;
45382;SDS011;42455;51.660;5.824;2023-05-10T06:20:36;41.0;;;31.0;;
45382;SDS011;42455;51.660;5.824;2023-05-10T06:25:42;40.0;;;31.0;;
45382;SDS011;42455;51.660;5.824;2023-05-10T06:30:48;39.0;;;32.0;;
45382;SDS011;42455;51.660;5.824;2023-05-10T06:35:54;39.5;;;31.0;;
45382;SDS011;42455;51.660;5.824;2023-05-10T06:41:00;39.0;;;31.5;;
45382;SDS011;42455;51.660;5.824;2023-05-10T06:46:06;35.0;;;30.0;;
45382;SDS011;42455;51.660;5.824;2023-05-10T06:51:12;35.0;;;30.0;;
45382;SDS011;42455;51.660;5.824;2023-05-10T07:01:24;35.0;;;28.0;;
45382;SDS011;42455;51.660;5.824;2023-05-10T07:06:31;35.0;;;28.0;;
45382;SDS011;42455;51.660;5.824;2023-05-10T07:11:37;33.0;;;26.0;;
45382;SDS011;42455;51.660;5.824;2023-05-10T07:16:43;32.0;;;27.0;;
45382;SDS011;42455;51.660;5.824;2023-05-10T07:21:49;31.0;;;26.0;;
45382;SDS011;42455;51.660;5.824;2023-05-10T07:26:55;30.0;;;26.0;;
45382;SDS011;42455;51.660;5.824;2023-05-10T07:32:02;31.0;;;25.0;;
45382;SDS011;42455;51.660;5.824;2023-05-10T07:37:08;32.0;;;26.0;;
45382;SDS011;42455;51.660;5.824;2023-05-10T07:42:14;30.0;;;26.0;;
45382;SDS011;42455;51.660;5.824;2023-05-10T07:47:20;31.0;;;25.0;;
45382;SDS011;42455;51.660;5.824;2023-05-10T07:52:27;30.0;;;25.0;;
45382;SDS011;42455;51.660;5.824;2023-05-10T07:57:33;32.5;;;27.0;;
45382;SDS011;42455;51.660;5.824;2023-05-10T08:02:39;32.0;;;27.0;;
45382;SDS011;42455;51.660;5.824;2023-05-10T08:07:45;34.0;;;28.0;;
45382;SDS011;42455;51.660;5.824;2023-05-10T08:12:51;34.0;;;29.0;;
45382;SDS011;42455;51.660;5.824;2023-05-10T08:17:57;35.0;;;29.0;;
45382;SDS011;42455;51.660;5.824;2023-05-10T08:23:04;33.5;;;29.0;;
45382;SDS011;42455;51.660;5.824;2023-05-10T08:28:10;32.0;;;28.0;;
45382;SDS011;42455;51.660;5.824;2023-05-10T08:33:17;29.0;;;26.0;;
45382;SDS011;42455;51.660;5.824;2023-05-10T08:38:22;29.0;;;25.0;;
45382;SDS011;42455;51.660;5.824;2023-05-10T08:43:29;27.0;;;24.0;;
45382;SDS011;42455;51.660;5.824;2023-05-10T08:48:35;26.0;;;23.0;;
45382;SDS011;42455;51.660;5.824;2023-05-10T08:53:41;25.0;;;22.0;;
45382;SDS011;42455;51.660;5.824;2023-05-10T08:58:47;27.0;;;24.0;;
45382;SDS011;42455;51.660;5.824;2023-05-10T09:03:53;27.0;;;25.0;;
45382;SDS011;42455;51.660;5.824;2023-05-10T09:09:00;29.0;;;26.0;;
45382;SDS011;42455;51.660;5.824;2023-05-10T09:14:06;29.0;;;26.0;;
45382;SDS011;42455;51.660;5.824;2023-05-10T09:19:12;30.0;;;27.0;;
45382;SDS011;42455;51.660;5.824;2023-05-10T09:24:18;29.0;;;26.0;;
45382;SDS011;42455;51.660;5.824;2023-05-10T09:29:24;28.0;;;25.5;;
45382;SDS011;42455;51.660;5.824;2023-05-10T09:34:32;26.0;;;24.0;;
45382;SDS011;42455;51.660;5.824;2023-05-10T09:39:37;26.0;;;23.5;;
45382;SDS011;42455;51.660;5.824;2023-05-10T09:44:43;25.0;;;22.0;;
45382;SDS011;42455;51.660;5.824;2023-05-10T09:49:49;24.0;;;22.0;;
45382;SDS011;42455;51.660;5.824;2023-05-10T09:54:56;24.0;;;22.0;;
45382;SDS011;42455;51.660;5.824;2023-05-10T10:00:02;24.0;;;21.0;;
45382;SDS011;42455;51.660;5.824;2023-05-10T10:05:08;22.0;;;20.0;;
45382;SDS011;42455;51.660;5.824;2023-05-10T10:10:14;23.0;;;20.0;;
45382;SDS011;42455;51.660;5.824;2023-05-10T10:15:21;20.0;;;18.0;;
45382;SDS011;42455;51.660;5.824;2023-05-10T10:20:27;19.0;;;17.0;;
45382;SDS011;42455;51.660;5.824;2023-05-10T10:25:33;20.0;;;18.0;;
45382;SDS011;42455;51.660;5.824;2023-05-10T10:30:47;20.0;;;19.0;;
45382;SDS011;42455;51.660;5.824;2023-05-10T10:35:45;20.0;;;18.0;;
45382;SDS011;42455;51.660;5.824;2023-05-10T10:41:01;18.0;;;16.0;;
45382;SDS011;42455;51.660;5.824;2023-05-10T10:46:16;17.0;;;15.0;;
45382;SDS011;42455;51.660;5.824;2023-05-10T10:51:04;16.0;;;15.0;;
45382;SDS011;42455;51.660;5.824;2023-05-10T10:56:13;15.0;;;14.0;;
45382;SDS011;42455;51.660;5.824;2023-05-10T11:01:18;15.0;;;13.0;;
45382;SDS011;42455;51.660;5.824;2023-05-10T11:06:28;15.0;;;14.0;;
45382;SDS011;42455;51.660;5.824;2023-05-10T11:11:29;16.0;;;15.0;;
45382;SDS011;42455;51.660;5.824;2023-05-10T11:16:40;17.0;;;16.0;;
45382;SDS011;42455;51.660;5.824;2023-05-10T11:21:48;17.0;;;15.0;;
45382;SDS011;42455;51.660;5.824;2023-05-10T11:26:50;16.0;;;14.0;;
45382;SDS011;42455;51.660;5.824;2023-05-10T11:31:53;17.0;;;15.0;;
45382;SDS011;42455;51.660;5.824;2023-05-10T11:37:00;18.0;;;16.0;;
45382;SDS011;42455;51.660;5.824;2023-05-10T11:47:33;18.0;;;16.0;;
45382;SDS011;42455;51.660;5.824;2023-05-10T11:52:39;16.0;;;14.5;;
45382;SDS011;42455;51.660;5.824;2023-05-10T11:57:46;14.0;;;13.0;;
45382;SDS011;42455;51.660;5.824;2023-05-10T12:02:52;17.0;;;15.0;;
45382;SDS011;42455;51.660;5.824;2023-05-10T12:08:10;17.0;;;16.0;;
45382;SDS011;42455;51.660;5.824;2023-05-10T12:13:04;18.0;;;16.0;;
45382;SDS011;42455;51.660;5.824;2023-05-10T12:18:10;17.0;;;16.0;;
45382;SDS011;42455;51.660;5.824;2023-05-10T12:23:16;19.0;;;17.0;;
45382;SDS011;42455;51.660;5.824;2023-05-10T12:28:23;17.5;;;16.0;;
45382;SDS011;42455;51.660;5.824;2023-05-10T12:33:35;16.0;;;15.0;;
45382;SDS011;42455;51.660;5.824;2023-05-10T12:38:35;16.0;;;15.0;;
45382;SDS011;42455;51.660;5.824;2023-05-10T12:43:42;19.0;;;17.0;;
45382;SDS011;42455;51.660;5.824;2023-05-10T12:48:47;18.0;;;16.0;;
45382;SDS011;42455;51.660;5.824;2023-05-10T12:53:54;18.0;;;16.0;;
45382;SDS011;42455;51.660;5.824;2023-05-10T12:59:00;14.0;;;13.0;;
45382;SDS011;42455;51.660;5.824;2023-05-10T13:04:06;18.0;;;16.0;;
45382;SDS011;42455;51.660;5.824;2023-05-10T13:09:12;17.0;;;15.0;;
45382;SDS011;42455;51.660;5.824;2023-05-10T13:14:19;14.0;;;13.0;;
45382;SDS011;42455;51.660;5.824;2023-05-10T13:19:25;13.0;;;12.0;;
45382;SDS011;42455;51.660;5.824;2023-05-10T13:24:31;14.0;;;12.0;;
45382;SDS011;42455;51.660;5.824;2023-05-10T13:29:37;13.0;;;12.0;;
45382;SDS011;42455;51.660;5.824;2023-05-10T13:34:43;13.0;;;12.0;;
45382;SDS011;42455;51.660;5.824;2023-05-10T13:39:50;14.0;;;12.0;;
45382;SDS011;42455;51.660;5.824;2023-05-10T13:44:56;14.0;;;12.0;;
45382;SDS011;42455;51.660;5.824;2023-05-10T13:50:02;14.0;;;13.0;;
45382;SDS011;42455;51.660;5.824;2023-05-10T13:55:08;15.0;;;13.0;;
45382;SDS011;42455;51.660;5.824;2023-05-10T14:00:15;17.0;;;16.0;;
45382;SDS011;42455;51.660;5.824;2023-05-10T14:05:21;16.0;;;14.5;;
45382;SDS011;42455;51.660;5.824;2023-05-10T14:10:27;16.0;;;15.0;;
45382;SDS011;42455;51.660;5.824;2023-05-10T14:15:33;9.0;;;8.0;;
45382;SDS011;42455;51.660;5.824;2023-05-10T14:20:39;11.0;;;10.0;;
45382;SDS011;42455;51.660;5.824;2023-05-10T14:25:45;9.0;;;9.0;;
45382;SDS011;42455;51.660;5.824;2023-05-10T14:30:52;6.0;;;6.0;;
45382;SDS011;42455;51.660;5.824;2023-05-10T14:35:58;3.0;;;3.0;;
45382;SDS011;42455;51.660;5.824;2023-05-10T14:41:04;2.5;;;2.0;;
45382;SDS011;42455;51.660;5.824;2023-05-10T14:46:10;2.0;;;2.0;;
45382;SDS011;42455;51.660;5.824;2023-05-10T14:51:17;5.0;;;4.0;;
45382;SDS011;42455;51.660;5.824;2023-05-10T14:56:23;4.0;;;4.0;;
45382;SDS011;42455;51.660;5.824;2023-05-10T15:01:29;5.0;;;4.0;;
45382;SDS011;42455;51.660;5.824;2023-05-10T15:06:35;5.0;;;4.0;;
45382;SDS011;42455;51.660;5.824;2023-05-10T15:11:41;6.0;;;5.0;;
45382;SDS011;42455;51.660;5.824;2023-05-10T15:16:48;7.0;;;6.0;;
45382;SDS011;42455;51.660;5.824;2023-05-10T15:21:54;7.0;;;6.5;;
45382;SDS011;42455;51.660;5.824;2023-05-10T15:27:00;8.0;;;8.0;;
45382;SDS011;42455;51.660;5.824;2023-05-10T15:32:06;9.0;;;8.0;;
45382;SDS011;42455;51.660;5.824;2023-05-10T15:37:12;10.0;;;9.0;;
45382;SDS011;42455;51.660;5.824;2023-05-10T15:42:19;11.0;;;11.0;;
45382;SDS011;42455;51.660;5.824;2023-05-10T15:47:25;12.0;;;11.0;;
45382;SDS011;42455;51.660;5.824;2023-05-10T15:52:31;14.0;;;13.0;;
45382;SDS011;42455;51.660;5.824;2023-05-10T15:57:37;15.0;;;14.0;;
45382;SDS011;42455;51.660;5.824;2023-05-10T16:02:43;16.0;;;15.0;;
45382;SDS011;42455;51.660;5.824;2023-05-10T16:07:50;18.0;;;16.0;;
45382;SDS011;42455;51.660;5.824;2023-05-10T16:12:56;18.0;;;17.0;;
45382;SDS011;42455;51.660;5.824;2023-05-10T16:18:02;19.0;;;17.0;;
45382;SDS011;42455;51.660;5.824;2023-05-10T16:23:08;19.0;;;17.0;;
45382;SDS011;42455;51.660;5.824;2023-05-10T16:28:14;18.0;;;17.0;;
45382;SDS011;42455;51.660;5.824;2023-05-10T16:33:21;19.0;;;17.0;;
45382;SDS011;42455;51.660;5.824;2023-05-10T16:38:27;18.0;;;17.0;;
45382;SDS011;42455;51.660;5.824;2023-05-10T16:43:33;18.0;;;16.0;;
45382;SDS011;42455;51.660;5.824;2023-05-10T16:48:39;18.0;;;16.0;;
45382;SDS011;42455;51.660;5.824;2023-05-10T16:53:46;17.0;;;16.0;;
45382;SDS011;42455;51.660;5.824;2023-05-10T16:58:52;18.0;;;16.0;;
45382;SDS011;42455;51.660;5.824;2023-05-10T17:03:58;18.0;;;16.0;;
45382;SDS011;42455;51.660;5.824;2023-05-10T17:09:04;17.0;;;16.0;;
45382;SDS011;42455;51.660;5.824;2023-05-10T17:14:10;17.0;;;16.0;;
45382;SDS011;42455;51.660;5.824;2023-05-10T17:19:17;16.0;;;15.0;;
45382;SDS011;42455;51.660;5.824;2023-05-10T17:24:23;15.0;;;14.0;;
45382;SDS011;42455;51.660;5.824;2023-05-10T17:29:29;17.0;;;16.0;;
45382;SDS011;42455;51.660;5.824;2023-05-10T17:34:35;19.0;;;17.0;;
45382;SDS011;42455;51.660;5.824;2023-05-10T17:39:41;17.0;;;16.0;;
45382;SDS011;42455;51.660;5.824;2023-05-10T17:44:48;17.0;;;16.0;;
45382;SDS011;42455;51.660;5.824;2023-05-10T17:49:54;17.0;;;16.0;;
45382;SDS011;42455;51.660;5.824;2023-05-10T17:55:00;18.0;;;16.0;;
45382;SDS011;42455;51.660;5.824;2023-05-10T18:00:06;18.0;;;16.0;;
45382;SDS011;42455;51.660;5.824;2023-05-10T18:05:12;19.0;;;17.0;;
45382;SDS011;42455;51.660;5.824;2023-05-10T18:10:19;19.0;;;18.0;;
45382;SDS011;42455;51.660;5.824;2023-05-10T18:15:25;20.0;;;18.0;;
45382;SDS011;42455;51.660;5.824;2023-05-10T18:20:31;20.5;;;19.0;;
45382;SDS011;42455;51.660;5.824;2023-05-10T18:25:37;21.0;;;19.0;;
45382;SDS011;42455;51.660;5.824;2023-05-10T18:30:43;23.0;;;21.0;;
45382;SDS011;42455;51.660;5.824;2023-05-10T18:35:50;24.0;;;22.0;;
45382;SDS011;42455;51.660;5.824;2023-05-10T18:40:56;25.0;;;23.0;;
45382;SDS011;42455;51.660;5.824;2023-05-10T18:46:02;25.0;;;23.0;;
45382;SDS011;42455;51.660;5.824;2023-05-10T18:51:08;24.0;;;22.0;;
45382;SDS011;42455;51.660;5.824;2023-05-10T18:56:15;24.0;;;22.0;;
45382;SDS011;42455;51.660;5.824;2023-05-10T19:01:21;24.0;;;22.0;;
45382;SDS011;42455;51.660;5.824;2023-05-10T19:06:27;25.0;;;23.0;;
45382;SDS011;42455;51.660;5.824;2023-05-10T19:11:33;25.0;;;23.0;;
45382;SDS011;42455;51.660;5.824;2023-05-10T19:16:39;23.0;;;21.0;;
45382;SDS011;42455;51.660;5.824;2023-05-10T19:21:46;21.0;;;19.5;;
45382;SDS011;42455;51.660;5.824;2023-05-10T19:26:52;22.0;;;20.0;;
45382;SDS011;42455;51.660;5.824;2023-05-10T19:31:58;19.0;;;18.0;;
45382;SDS011;42455;51.660;5.824;2023-05-10T19:37:04;16.0;;;14.0;;
45382;SDS011;42455;51.660;5.824;2023-05-10T19:42:10;12.0;;;11.0;;
45382;SDS011;42455;51.660;5.824;2023-05-10T19:47:17;10.0;;;9.0;;
45382;SDS011;42455;51.660;5.824;2023-05-10T19:52:22;10.0;;;9.0;;
45382;SDS011;42455;51.660;5.824;2023-05-10T19:57:27;10.0;;;9.0;;
45382;SDS011;42455;51.660;5.824;2023-05-10T20:02:33;9.0;;;8.0;;
45382;SDS011;42455;51.660;5.824;2023-05-10T20:07:39;9.0;;;8.0;;
45382;SDS011;42455;51.660;5.824;2023-05-10T20:12:46;9.0;;;8.0;;
45382;SDS011;42455;51.660;5.824;2023-05-10T20:17:52;9.0;;;9.0;;
45382;SDS011;42455;51.660;5.824;2023-05-10T20:22:58;9.0;;;9.0;;
45382;SDS011;42455;51.660;5.824;2023-05-10T20:28:04;10.0;;;9.0;;
45382;SDS011;42455;51.660;5.824;2023-05-10T20:33:10;10.0;;;9.0;;
45382;SDS011;42455;51.660;5.824;2023-05-10T20:38:17;10.0;;;9.0;;
45382;SDS011;42455;51.660;5.824;2023-05-10T20:43:23;10.5;;;10.0;;
45382;SDS011;42455;51.660;5.824;2023-05-10T20:48:29;11.0;;;10.0;;
45382;SDS011;42455;51.660;5.824;2023-05-10T20:53:35;12.0;;;11.0;;
45382;SDS011;42455;51.660;5.824;2023-05-10T20:58:42;14.0;;;12.5;;
45382;SDS011;42455;51.660;5.824;2023-05-10T21:03:48;15.0;;;13.5;;
45382;SDS011;42455;51.660;5.824;2023-05-10T21:08:54;15.0;;;14.0;;
45382;SDS011;42455;51.660;5.824;2023-05-10T21:14:00;17.0;;;15.0;;
45382;SDS011;42455;51.660;5.824;2023-05-10T21:19:06;18.0;;;16.0;;
45382;SDS011;42455;51.660;5.824;2023-05-10T21:24:13;19.5;;;18.0;;
45382;SDS011;42455;51.660;5.824;2023-05-10T21:29:19;20.0;;;18.0;;
45382;SDS011;42455;51.660;5.824;2023-05-10T21:34:25;21.0;;;19.0;;
45382;SDS011;42455;51.660;5.824;2023-05-10T21:39:30;21.0;;;19.0;;
45382;SDS011;42455;51.660;5.824;2023-05-10T21:44:37;22.5;;;20.0;;
45382;SDS011;42455;51.660;5.824;2023-05-10T21:49:43;23.0;;;20.5;;
45382;SDS011;42455;51.660;5.824;2023-05-10T21:54:49;22.0;;;20.0;;
45382;SDS011;42455;51.660;5.824;2023-05-10T21:59:55;22.0;;;20.0;;
45382;SDS011;42455;51.660;5.824;2023-05-10T22:05:02;23.0;;;21.0;;
45382;SDS011;42455;51.660;5.824;2023-05-10T22:10:08;24.0;;;22.0;;
45382;SDS011;42455;51.660;5.824;2023-05-10T22:15:14;24.5;;;22.0;;
45382;SDS011;42455;51.660;5.824;2023-05-10T22:20:20;25.0;;;22.5;;
45382;SDS011;42455;51.660;5.824;2023-05-10T22:25:26;24.0;;;22.0;;
45382;SDS011;42455;51.660;5.824;2023-05-10T22:30:32;26.0;;;24.0;;
45382;SDS011;42455;51.660;5.824;2023-05-10T22:35:39;26.0;;;23.0;;
45382;SDS011;42455;51.660;5.824;2023-05-10T22:40:45;27.0;;;24.0;;
45382;SDS011;42455;51.660;5.824;2023-05-10T22:45:51;26.0;;;24.0;;
45382;SDS011;42455;51.660;5.824;2023-05-10T22:50:57;25.0;;;23.0;;
45382;SDS011;42455;51.660;5.824;2023-05-10T22:56:04;27.0;;;24.0;;
45382;SDS011;42455;51.660;5.824;2023-05-10T23:01:10;27.0;;;24.0;;
45382;SDS011;42455;51.660;5.824;2023-05-10T23:06:16;26.0;;;24.0;;
45382;SDS011;42455;51.660;5.824;2023-05-10T23:11:22;26.0;;;23.0;;
45382;SDS011;42455;51.660;5.824;2023-05-10T23:16:28;27.0;;;24.0;;
45382;SDS011;42455;51.660;5.824;2023-05-10T23:21:34;28.0;;;25.0;;
45382;SDS011;42455;51.660;5.824;2023-05-10T23:26:40;28.0;;;25.0;;
45382;SDS011;42455;51.660;5.824;2023-05-10T23:31:47;28.0;;;25.0;;
45382;SDS011;42455;51.660;5.824;2023-05-10T23:36:52;28.0;;;25.0;;
45382;SDS011;42455;51.660;5.824;2023-05-10T23:41:58;27.0;;;24.0;;
45382;SDS011;42455;51.660;5.824;2023-05-10T23:47:05;29.0;;;26.0;;
45382;SDS011;42455;51.660;5.824;2023-05-10T23:52:11;28.0;;;25.0;;
45382;SDS011;42455;51.660;5.824;2023-05-10T23:57:17;27.0;;;24.5;;
